createdAt,value
2019-01-14T00:00:11.886Z,94053.90
2019-01-14T00:01:15.457Z,94054.48
2019-01-14T00:02:18.981Z,94039.94
2019-01-14T00:03:22.554Z,94040.13
2019-01-14T00:04:25.981Z,94036.38
2019-01-14T00:05:29.648Z,94041.84
2019-01-14T00:06:33.156Z,94037.88
2019-01-14T00:07:36.640Z,94037.56
2019-01-14T00:08:40.069Z,94034.40
2019-01-14T00:09:43.515Z,94032.50
2019-01-14T00:10:47.142Z,94029.34
2019-01-14T00:11:50.596Z,94033.85
2019-01-14T00:12:54.060Z,94023.41
2019-01-14T00:13:57.556Z,94033.70
2019-01-14T00:15:00.970Z,94027.53
2019-01-14T00:16:04.531Z,94025.47
2019-01-14T00:17:08.250Z,94033.89
2019-01-14T00:18:11.724Z,94026.97
2019-01-14T00:19:15.151Z,94026.02
2019-01-14T00:20:18.652Z,94019.50
2019-01-14T00:21:22.138Z,94026.77
2019-01-14T00:22:25.658Z,94030.89
2019-01-14T00:23:29.171Z,94033.25
2019-01-14T00:24:32.588Z,94034.02
2019-01-14T00:25:36.019Z,94029.53
2019-01-14T00:26:39.539Z,94027.28
2019-01-14T00:27:42.958Z,94033.49
2019-01-14T00:28:46.400Z,94036.46
2019-01-14T00:29:49.831Z,94037.17
2019-01-14T00:30:53.252Z,94032.55
2019-01-14T00:31:56.702Z,94030.09
2019-01-14T00:33:00.129Z,94023.05
2019-01-14T00:34:03.809Z,94029.39
2019-01-14T00:35:07.578Z,94019.55
2019-01-14T00:36:17.284Z,94034.09
2019-01-14T00:37:16.233Z,94040.53
2019-01-14T00:38:19.715Z,94033.09
2019-01-14T00:39:23.153Z,94033.49
2019-01-14T00:40:26.571Z,94040.19
2019-01-14T00:41:30.156Z,94033.89
2019-01-14T00:42:33.662Z,94039.11
2019-01-14T00:43:37.148Z,94034.25
2019-01-14T00:44:40.577Z,94028.67
2019-01-14T00:45:44.133Z,94038.16
2019-01-14T00:46:47.658Z,94048.80
2019-01-14T00:47:51.083Z,94054.21
2019-01-14T00:48:54.513Z,94063.11
2019-01-14T00:49:58.004Z,94062.91
2019-01-14T00:51:01.452Z,94056.20
2019-01-14T00:52:04.960Z,94057.93
2019-01-14T00:53:08.450Z,94051.61
2019-01-14T00:54:11.888Z,94055.91
2019-01-14T00:55:15.371Z,94064.62
2019-01-14T00:56:18.800Z,94070.07
2019-01-14T00:57:22.241Z,94067.46
2019-01-14T00:58:25.739Z,94075.12
2019-01-14T00:59:29.248Z,94084.06
2019-01-14T01:00:32.911Z,94109.05
2019-01-14T01:01:36.369Z,94095.25
2019-01-14T01:02:39.887Z,94101.05
2019-01-14T01:03:43.460Z,94106.63
2019-01-14T01:04:46.895Z,94107.34
2019-01-14T01:05:50.462Z,94107.19
2019-01-14T01:06:53.983Z,94118.56
2019-01-14T01:07:57.479Z,94117.48
2019-01-14T01:09:00.981Z,94127.34
2019-01-14T01:10:07.718Z,94120.65
2019-01-14T01:11:11.924Z,94116.21
2019-01-14T01:12:15.493Z,94123.26
2019-01-14T01:13:19.032Z,94121.76
2019-01-14T01:14:22.454Z,94129.75
2019-01-14T01:15:26.111Z,94122.12
2019-01-14T01:16:29.605Z,94124.37
2019-01-14T01:17:33.109Z,94124.92
2019-01-14T01:18:36.702Z,94119.15
2019-01-14T01:19:40.132Z,94125.67
2019-01-14T01:20:43.895Z,94118.98
2019-01-14T01:21:47.323Z,94124.20
2019-01-14T01:22:50.912Z,94129.05
2019-01-14T01:23:54.434Z,94124.76
2019-01-14T01:24:57.879Z,94127.14
2019-01-14T01:26:01.305Z,94130.17
2019-01-14T01:27:04.938Z,94124.95
2019-01-14T01:28:08.379Z,94126.81
2019-01-14T01:29:11.823Z,94130.92
2019-01-14T01:30:16.734Z,94137.47
2019-01-14T01:31:20.159Z,94138.96
2019-01-14T01:32:23.581Z,94152.19
2019-01-14T01:33:27.099Z,94157.96
2019-01-14T01:34:30.608Z,94154.64
2019-01-14T01:35:34.101Z,94151.28
2019-01-14T01:36:37.662Z,94150.89
2019-01-14T01:37:41.227Z,94148.84
2019-01-14T01:38:44.752Z,94142.16
2019-01-14T01:39:48.203Z,94144.20
2019-01-14T01:40:51.642Z,94154.83
2019-01-14T01:41:55.138Z,94144.22
2019-01-14T01:42:58.564Z,94143.52
2019-01-14T01:44:01.999Z,94145.75
2019-01-14T01:45:07.974Z,94153.39
2019-01-14T01:46:11.465Z,94149.28
2019-01-14T01:47:14.887Z,94154.86
2019-01-14T01:48:18.325Z,94163.59
2019-01-14T01:49:21.762Z,94158.75
2019-01-14T01:50:25.279Z,94157.26
2019-01-14T01:51:28.770Z,94156.13
2019-01-14T01:52:32.203Z,94162.09
2019-01-14T01:53:35.644Z,94156.85
2019-01-14T01:54:39.079Z,94162.09
2019-01-14T01:55:42.580Z,94161.72
2019-01-14T01:56:46.000Z,94174.76
2019-01-14T01:57:49.498Z,94168.98
2019-01-14T01:58:52.997Z,94162.45
2019-01-14T01:59:56.513Z,94167.49
2019-01-14T02:01:00.348Z,94169.73
2019-01-14T02:02:03.952Z,94171.59
2019-01-14T02:03:07.453Z,94169.38
2019-01-14T02:04:10.898Z,94180.72
2019-01-14T02:05:15.045Z,94185.20
2019-01-14T02:06:18.675Z,94194.33
2019-01-14T02:07:22.172Z,94195.84
2019-01-14T02:08:25.602Z,94187.82
2019-01-14T02:09:29.053Z,94198.25
2019-01-14T02:10:32.485Z,94198.47
2019-01-14T02:11:35.973Z,94195.69
2019-01-14T02:12:39.545Z,94201.08
2019-01-14T02:13:42.964Z,94204.26
2019-01-14T02:14:46.416Z,94202.76
2019-01-14T02:15:49.856Z,94203.34
2019-01-14T02:16:53.370Z,94214.30
2019-01-14T02:17:56.806Z,94208.92
2019-01-14T02:19:00.320Z,94211.70
2019-01-14T02:20:05.903Z,94209.29
2019-01-14T02:21:09.392Z,94227.91
2019-01-14T02:22:12.968Z,94213.55
2019-01-14T02:23:16.380Z,94215.80
2019-01-14T02:24:19.900Z,94224.36
2019-01-14T02:25:23.337Z,94229.77
2019-01-14T02:26:26.790Z,94232.38
2019-01-14T02:27:30.220Z,94225.84
2019-01-14T02:28:33.662Z,94230.87
2019-01-14T02:29:37.127Z,94207.83
2019-01-14T02:30:40.613Z,94237.95
2019-01-14T02:31:44.031Z,94244.28
2019-01-14T02:32:47.723Z,94243.16
2019-01-14T02:33:51.311Z,94245.20
2019-01-14T02:34:54.758Z,94244.47
2019-01-14T02:35:58.258Z,94251.17
2019-01-14T02:37:01.825Z,94249.48
2019-01-14T02:38:05.255Z,94243.73
2019-01-14T02:39:08.910Z,94250.05
2019-01-14T02:40:15.146Z,94251.36
2019-01-14T02:41:18.648Z,94248.37
2019-01-14T02:42:22.074Z,94251.55
2019-01-14T02:43:25.564Z,94250.62
2019-01-14T02:44:29.013Z,94255.07
2019-01-14T02:45:32.503Z,94248.55
2019-01-14T02:46:35.961Z,94251.53
2019-01-14T02:47:39.523Z,94252.08
2019-01-14T02:48:42.948Z,94250.95
2019-01-14T02:49:46.410Z,94251.53
2019-01-14T02:50:49.858Z,94255.25
2019-01-14T02:51:53.278Z,94249.86
2019-01-14T02:52:56.699Z,94249.29
2019-01-14T02:54:00.129Z,94254.70
2019-01-14T02:55:04.413Z,94246.87
2019-01-14T02:56:07.848Z,94252.08
2019-01-14T02:57:11.345Z,94252.28
2019-01-14T02:58:14.770Z,94256.17
2019-01-14T02:59:18.265Z,94258.61
2019-01-14T03:00:24.953Z,94256.17
2019-01-14T03:01:28.381Z,94258.59
2019-01-14T03:02:31.886Z,94261.00
2019-01-14T03:03:35.303Z,94264.91
2019-01-14T03:04:38.728Z,94269.94
2019-01-14T03:05:42.220Z,94265.30
2019-01-14T03:06:45.638Z,94264.94
2019-01-14T03:07:49.301Z,94266.78
2019-01-14T03:08:52.729Z,94266.03
2019-01-14T03:09:56.163Z,94269.94
2019-01-14T03:10:59.604Z,94274.23
2019-01-14T03:12:03.099Z,94266.41
2019-01-14T03:13:06.524Z,94279.63
2019-01-14T03:14:10.017Z,94268.84
2019-01-14T03:15:15.783Z,94262.70
2019-01-14T03:16:19.295Z,94267.16
2019-01-14T03:17:22.785Z,94271.28
2019-01-14T03:18:26.284Z,94274.25
2019-01-14T03:19:29.788Z,94277.23
2019-01-14T03:20:33.228Z,94283.55
2019-01-14T03:21:36.657Z,94277.42
2019-01-14T03:22:40.243Z,94284.30
2019-01-14T03:23:43.675Z,94284.31
2019-01-14T03:24:47.105Z,94290.06
2019-01-14T03:25:57.996Z,94290.45
2019-01-14T03:26:55.810Z,94297.15
2019-01-14T03:27:59.273Z,94291.93
2019-01-14T03:29:02.697Z,94286.35
2019-01-14T03:30:09.630Z,94295.48
2019-01-14T03:31:13.153Z,94289.70
2019-01-14T03:32:16.641Z,94294.91
2019-01-14T03:33:20.149Z,94290.63
2019-01-14T03:34:23.581Z,94290.63
2019-01-14T03:35:27.102Z,94297.53
2019-01-14T03:36:30.581Z,94291.56
2019-01-14T03:37:33.950Z,94292.48
2019-01-14T03:38:37.448Z,94301.23
2019-01-14T03:39:40.945Z,94299.17
2019-01-14T03:40:44.464Z,94297.50
2019-01-14T03:41:47.890Z,94293.97
2019-01-14T03:42:51.382Z,94294.34
2019-01-14T03:43:54.903Z,94298.81
2019-01-14T03:44:58.449Z,94298.63
2019-01-14T03:46:01.925Z,94293.98
2019-01-14T03:47:05.360Z,94301.05
2019-01-14T03:48:08.860Z,94301.24
2019-01-14T03:49:12.354Z,94298.64
2019-01-14T03:50:18.131Z,94298.45
2019-01-14T03:51:21.682Z,94298.44
2019-01-14T03:52:25.175Z,94302.55
2019-01-14T03:53:28.695Z,94305.73
2019-01-14T03:54:32.456Z,94299.02
2019-01-14T03:55:35.975Z,94301.61
2019-01-14T03:56:39.490Z,94307.38
2019-01-14T03:57:43.780Z,94306.83
2019-01-14T03:58:47.199Z,94309.07
2019-01-14T03:59:50.617Z,94315.20
2019-01-14T04:00:54.066Z,94315.94
2019-01-14T04:01:57.510Z,94315.38
2019-01-14T04:03:00.943Z,94320.23
2019-01-14T04:04:04.601Z,94318.54
2019-01-14T04:05:09.267Z,94319.67
2019-01-14T04:06:12.830Z,94318.17
2019-01-14T04:07:16.289Z,94321.73
2019-01-14T04:08:19.714Z,94322.28
2019-01-14T04:09:23.144Z,94330.47
2019-01-14T04:10:26.563Z,94326.73
2019-01-14T04:11:29.990Z,94329.72
2019-01-14T04:12:33.492Z,94322.45
2019-01-14T04:13:36.916Z,94330.84
2019-01-14T04:14:40.346Z,94329.37
2019-01-14T04:15:43.871Z,94330.47
2019-01-14T04:16:47.293Z,94342.95
2019-01-14T04:17:50.957Z,94339.79
2019-01-14T04:18:54.719Z,94336.44
2019-01-14T04:19:58.144Z,94345.55
2019-01-14T04:21:01.653Z,94340.16
2019-01-14T04:22:05.169Z,94342.39
2019-01-14T04:23:13.963Z,94344.61
2019-01-14T04:24:17.394Z,94344.80
2019-01-14T04:25:20.910Z,94346.84
2019-01-14T04:26:24.414Z,94352.99
2019-01-14T04:27:27.863Z,94361.56
2019-01-14T04:28:31.403Z,94355.59
2019-01-14T04:29:34.821Z,94362.48
2019-01-14T04:30:38.264Z,94359.32
2019-01-14T04:31:41.699Z,94360.45
2019-01-14T04:32:45.211Z,94359.89
2019-01-14T04:33:48.635Z,94365.28
2019-01-14T04:34:52.140Z,94366.39
2019-01-14T04:35:55.569Z,94374.59
2019-01-14T04:36:59.005Z,94373.11
2019-01-14T04:38:02.496Z,94369.94
2019-01-14T04:39:07.770Z,94372.55
2019-01-14T04:40:13.437Z,94380.55
2019-01-14T04:41:16.942Z,94375.33
2019-01-14T04:42:20.387Z,94372.36
2019-01-14T04:43:23.817Z,94382.98
2019-01-14T04:44:27.243Z,94379.45
2019-01-14T04:45:30.681Z,94378.88
2019-01-14T04:46:34.250Z,94389.13
2019-01-14T04:47:37.693Z,94380.37
2019-01-14T04:48:41.196Z,94386.70
2019-01-14T04:49:44.673Z,94384.28
2019-01-14T04:50:48.101Z,94385.96
2019-01-14T04:51:51.695Z,94388.19
2019-01-14T04:52:55.132Z,94391.16
2019-01-14T04:53:58.542Z,94388.55
2019-01-14T04:55:01.987Z,94384.26
2019-01-14T04:56:05.575Z,94389.68
2019-01-14T04:57:08.995Z,94386.31
2019-01-14T04:58:12.443Z,94378.50
2019-01-14T04:59:15.879Z,94390.42
2019-01-14T05:00:25.622Z,94406.41
2019-01-14T05:01:29.141Z,94399.72
2019-01-14T05:02:32.606Z,94404.01
2019-01-14T05:03:36.052Z,94397.87
2019-01-14T05:04:39.553Z,94400.85
2019-01-14T05:05:43.046Z,94407.37
2019-01-14T05:06:46.467Z,94405.31
2019-01-14T05:07:50.152Z,94412.76
2019-01-14T05:08:53.662Z,94406.99
2019-01-14T05:09:57.123Z,94402.52
2019-01-14T05:11:00.563Z,94406.39
2019-01-14T05:12:04.059Z,94402.31
2019-01-14T05:13:07.506Z,94413.66
2019-01-14T05:14:10.958Z,94411.61
2019-01-14T05:15:14.522Z,94417.40
2019-01-14T05:16:17.953Z,94417.19
2019-01-14T05:17:21.376Z,94422.43
2019-01-14T05:18:24.825Z,94418.34
2019-01-14T05:19:28.256Z,94427.66
2019-01-14T05:20:31.754Z,94425.43
2019-01-14T05:21:35.246Z,94431.38
2019-01-14T05:22:38.680Z,94428.59
2019-01-14T05:23:42.123Z,94432.50
2019-01-14T05:24:45.621Z,94437.70
2019-01-14T05:25:49.046Z,94432.88
2019-01-14T05:26:52.475Z,94437.34
2019-01-14T05:27:56.064Z,94439.39
2019-01-14T05:28:59.566Z,94440.49
2019-01-14T05:30:04.234Z,94442.55
2019-01-14T05:31:07.801Z,94437.71
2019-01-14T05:32:11.248Z,94441.98
2019-01-14T05:33:14.720Z,94443.25
2019-01-14T05:34:18.207Z,94444.20
2019-01-14T05:35:21.721Z,94443.28
2019-01-14T05:36:25.287Z,94449.42
2019-01-14T05:37:28.729Z,94446.81
2019-01-14T05:38:32.225Z,94451.27
2019-01-14T05:39:35.724Z,94457.44
2019-01-14T05:40:39.169Z,94463.20
2019-01-14T05:41:42.573Z,94452.58
2019-01-14T05:42:46.116Z,94461.34
2019-01-14T05:43:49.542Z,94456.86
2019-01-14T05:44:52.963Z,94462.63
2019-01-14T05:45:56.537Z,94461.49
2019-01-14T05:47:00.025Z,94462.63
2019-01-14T05:48:03.480Z,94457.41
2019-01-14T05:49:06.901Z,94460.94
2019-01-14T05:50:12.773Z,94462.05
2019-01-14T05:51:16.203Z,94460.91
2019-01-14T05:52:19.702Z,94471.92
2019-01-14T05:53:23.159Z,94463.89
2019-01-14T05:54:26.586Z,94463.00
2019-01-14T05:55:30.093Z,94467.83
2019-01-14T05:56:33.587Z,94467.28
2019-01-14T05:57:37.080Z,94465.58
2019-01-14T05:58:40.602Z,94469.69
2019-01-14T05:59:44.105Z,94464.47
2019-01-14T06:00:47.540Z,94462.39
2019-01-14T06:01:50.963Z,94464.27
2019-01-14T06:02:54.551Z,94462.25
2019-01-14T06:03:58.059Z,94467.80
2019-01-14T06:05:01.599Z,94468.01
2019-01-14T06:06:05.115Z,94465.58
2019-01-14T06:07:08.605Z,94463.72
2019-01-14T06:08:12.114Z,94468.35
2019-01-14T06:09:15.549Z,94458.27
2019-01-14T06:10:18.979Z,94476.52
2019-01-14T06:11:22.409Z,94471.30
2019-01-14T06:12:25.938Z,94471.12
2019-01-14T06:13:29.427Z,94470.03
2019-01-14T06:14:32.873Z,94468.53
2019-01-14T06:15:36.324Z,94473.19
2019-01-14T06:16:39.770Z,94476.00
2019-01-14T06:17:43.271Z,94485.29
2019-01-14T06:18:46.716Z,94483.44
2019-01-14T06:19:50.336Z,94489.20
2019-01-14T06:20:53.775Z,94482.89
2019-01-14T06:21:57.272Z,94483.44
2019-01-14T06:23:00.702Z,94487.17
2019-01-14T06:24:04.217Z,94492.21
2019-01-14T06:25:10.473Z,94485.29
2019-01-14T06:26:14.032Z,94494.23
2019-01-14T06:27:17.473Z,94493.10
2019-01-14T06:28:20.902Z,94481.76
2019-01-14T06:29:24.434Z,94488.44
2019-01-14T06:30:29.724Z,94492.34
2019-01-14T06:31:33.255Z,94485.29
2019-01-14T06:32:36.649Z,94498.48
2019-01-14T06:33:40.149Z,94498.48
2019-01-14T06:34:43.570Z,94497.59
2019-01-14T06:35:47.090Z,94491.42
2019-01-14T06:36:50.544Z,94494.41
2019-01-14T06:37:53.970Z,94500.20
2019-01-14T06:38:57.583Z,94496.46
2019-01-14T06:40:01.084Z,94499.06
2019-01-14T06:41:04.627Z,94501.50
2019-01-14T06:42:08.080Z,94505.79
2019-01-14T06:43:12.435Z,94511.55
2019-01-14T06:44:15.947Z,94504.45
2019-01-14T06:45:19.510Z,94513.23
2019-01-14T06:46:23.021Z,94512.81
2019-01-14T06:47:26.461Z,94508.74
2019-01-14T06:48:31.040Z,94510.80
2019-01-14T06:49:34.642Z,94504.63
2019-01-14T06:50:38.137Z,94516.52
2019-01-14T06:51:41.772Z,94513.91
2019-01-14T06:52:45.366Z,94518.37
2019-01-14T06:53:48.789Z,94526.39
2019-01-14T06:54:52.214Z,94519.16
2019-01-14T06:55:55.650Z,94528.45
2019-01-14T06:56:59.169Z,94532.94
2019-01-14T06:58:02.802Z,94536.47
2019-01-14T06:59:06.291Z,94538.91
2019-01-14T07:00:18.272Z,94534.08
2019-01-14T07:01:21.714Z,94540.22
2019-01-14T07:02:25.228Z,94551.39
2019-01-14T07:03:28.714Z,94548.78
2019-01-14T07:04:32.143Z,94546.94
2019-01-14T07:05:35.633Z,94543.19
2019-01-14T07:06:39.141Z,94548.19
2019-01-14T07:07:42.669Z,94546.73
2019-01-14T07:08:46.174Z,94552.48
2019-01-14T07:09:49.602Z,94537.19
2019-01-14T07:10:53.789Z,94555.55
2019-01-14T07:11:57.445Z,94559.70
2019-01-14T07:13:00.925Z,94557.83
2019-01-14T07:14:04.421Z,94560.84
2019-01-14T07:15:08.993Z,94558.41
2019-01-14T07:16:12.421Z,94557.86
2019-01-14T07:17:15.999Z,94563.25
2019-01-14T07:18:19.436Z,94561.56
2019-01-14T07:19:23.050Z,94564.71
2019-01-14T07:20:26.622Z,94567.14
2019-01-14T07:21:30.045Z,94552.02
2019-01-14T07:22:33.620Z,94564.13
2019-01-14T07:23:37.071Z,94570.41
2019-01-14T07:24:40.491Z,94559.28
2019-01-14T07:25:43.989Z,94566.00
2019-01-14T07:26:47.431Z,94563.90
2019-01-14T07:27:50.868Z,94563.34
2019-01-14T07:28:54.291Z,94571.17
2019-01-14T07:29:57.793Z,94572.84
2019-01-14T07:31:01.295Z,94588.09
2019-01-14T07:32:04.871Z,94583.66
2019-01-14T07:33:08.311Z,94591.85
2019-01-14T07:34:11.746Z,94587.39
2019-01-14T07:35:15.715Z,94596.89
2019-01-14T07:36:19.340Z,94595.58
2019-01-14T07:37:22.974Z,94592.02
2019-01-14T07:38:26.519Z,94594.78
2019-01-14T07:39:30.144Z,94594.44
2019-01-14T07:40:33.903Z,94599.10
2019-01-14T07:41:37.411Z,94598.73
2019-01-14T07:42:41.092Z,94605.04
2019-01-14T07:43:45.315Z,94603.18
2019-01-14T07:44:48.990Z,94603.89
2019-01-14T07:45:52.594Z,94605.34
2019-01-14T07:46:56.043Z,94606.09
2019-01-14T07:47:59.631Z,94606.11
2019-01-14T07:49:03.275Z,94606.32
2019-01-14T07:50:09.643Z,94624.34
2019-01-14T07:51:13.214Z,94614.09
2019-01-14T07:52:16.703Z,94618.38
2019-01-14T07:53:20.649Z,94629.55
2019-01-14T07:54:24.244Z,94628.45
2019-01-14T07:55:28.443Z,94626.03
2019-01-14T07:56:32.306Z,94621.05
2019-01-14T07:57:39.478Z,94628.09
2019-01-14T07:58:43.700Z,94632.01
2019-01-14T07:59:49.174Z,94626.41
2019-01-14T08:00:52.776Z,94634.83
2019-01-14T08:01:56.442Z,94629.77
2019-01-14T08:03:00.005Z,94627.50
2019-01-14T08:04:03.758Z,94632.55
2019-01-14T08:05:07.453Z,94633.13
2019-01-14T08:06:11.065Z,94640.80
2019-01-14T08:07:14.675Z,94643.99
2019-01-14T08:08:18.112Z,94645.30
2019-01-14T08:09:21.579Z,94647.20
2019-01-14T08:10:25.312Z,94645.08
2019-01-14T08:11:29.053Z,94647.53
2019-01-14T08:12:32.412Z,94643.63
2019-01-14T08:13:35.916Z,94652.95
2019-01-14T08:14:39.448Z,94654.05
2019-01-14T08:15:42.948Z,94662.04
2019-01-14T08:16:46.389Z,94657.41
2019-01-14T08:17:49.819Z,94655.73
2019-01-14T08:18:53.245Z,94655.14
2019-01-14T08:19:56.719Z,94658.32
2019-01-14T08:21:00.401Z,94662.02
2019-01-14T08:22:03.967Z,94653.50
2019-01-14T08:23:07.414Z,94651.82
2019-01-14T08:24:10.892Z,94665.07
2019-01-14T08:25:15.262Z,94664.36
2019-01-14T08:26:18.685Z,94665.78
2019-01-14T08:27:22.200Z,94674.72
2019-01-14T08:28:25.763Z,94670.42
2019-01-14T08:29:29.209Z,94669.63
2019-01-14T08:30:32.713Z,94668.15
2019-01-14T08:31:36.161Z,94675.97
2019-01-14T08:32:39.653Z,94672.83
2019-01-14T08:33:43.158Z,94681.95
2019-01-14T08:34:46.696Z,94671.91
2019-01-14T08:35:50.329Z,94682.92
2019-01-14T08:37:00.580Z,94674.73
2019-01-14T08:37:59.050Z,94680.87
2019-01-14T08:39:02.497Z,94679.94
2019-01-14T08:40:08.892Z,94681.41
2019-01-14T08:41:12.899Z,94688.13
2019-01-14T08:42:16.498Z,94693.19
2019-01-14T08:43:20.020Z,94692.10
2019-01-14T08:44:25.095Z,94698.63
2019-01-14T08:45:28.522Z,94704.00
2019-01-14T08:46:32.216Z,94698.41
2019-01-14T08:47:35.704Z,94697.27
2019-01-14T08:48:39.148Z,94700.03
2019-01-14T08:49:42.746Z,94700.00
2019-01-14T08:50:46.461Z,94705.25
2019-01-14T08:51:50.054Z,94696.70
2019-01-14T08:52:53.496Z,94705.63
2019-01-14T08:53:56.943Z,94704.37
2019-01-14T08:55:00.398Z,94702.91
2019-01-14T08:56:04.269Z,94709.81
2019-01-14T08:57:07.838Z,94709.05
2019-01-14T08:58:11.334Z,94707.16
2019-01-14T08:59:14.757Z,94709.59
2019-01-14T09:00:19.763Z,94708.89
2019-01-14T09:01:23.308Z,94701.84
2019-01-14T09:02:26.882Z,94715.95
2019-01-14T09:03:30.359Z,94722.41
2019-01-14T09:04:33.919Z,94725.59
2019-01-14T09:05:37.533Z,94726.30
2019-01-14T09:06:41.101Z,94726.54
2019-01-14T09:07:44.682Z,94731.04
2019-01-14T09:08:48.262Z,94732.88
2019-01-14T09:09:51.705Z,94736.78
2019-01-14T09:10:55.238Z,94742.22
2019-01-14T09:11:58.733Z,94742.38
2019-01-14T09:13:02.158Z,94744.09
2019-01-14T09:14:05.809Z,94740.48
2019-01-14T09:15:12.299Z,94735.48
2019-01-14T09:16:15.709Z,94740.33
2019-01-14T09:17:19.211Z,94732.30
2019-01-14T09:18:22.712Z,94739.94
2019-01-14T09:19:26.138Z,94729.84
2019-01-14T09:20:29.666Z,94734.30
2019-01-14T09:21:33.171Z,94732.61
2019-01-14T09:22:36.670Z,94731.66
2019-01-14T09:23:40.167Z,94735.72
2019-01-14T09:24:43.606Z,94736.80
2019-01-14T09:25:53.592Z,94738.03
2019-01-14T09:26:52.439Z,94739.94
2019-01-14T09:27:56.009Z,94743.38
2019-01-14T09:28:59.448Z,94735.75
2019-01-14T09:30:04.541Z,94736.89
2019-01-14T09:31:08.067Z,94742.17
2019-01-14T09:32:11.639Z,94747.40
2019-01-14T09:33:15.132Z,94743.33
2019-01-14T09:34:18.666Z,94744.63
2019-01-14T09:35:22.162Z,94751.30
2019-01-14T09:36:25.597Z,94743.88
2019-01-14T09:37:29.041Z,94748.91
2019-01-14T09:38:36.004Z,94754.72
2019-01-14T09:39:37.912Z,94744.25
2019-01-14T09:40:41.370Z,94751.36
2019-01-14T09:41:44.822Z,94747.28
2019-01-14T09:42:48.414Z,94746.90
2019-01-14T09:43:51.884Z,94754.67
2019-01-14T09:44:55.344Z,94751.61
2019-01-14T09:45:58.794Z,94752.18
2019-01-14T09:47:02.252Z,94754.78
2019-01-14T09:48:05.749Z,94746.83
2019-01-14T09:49:09.184Z,94751.36
2019-01-14T09:50:14.273Z,94751.36
2019-01-14T09:51:17.985Z,94736.06
2019-01-14T09:52:21.399Z,94749.83
2019-01-14T09:53:24.841Z,94747.38
2019-01-14T09:54:28.271Z,94753.91
2019-01-14T09:55:31.860Z,94758.34
2019-01-14T09:56:35.377Z,94747.98
2019-01-14T09:57:38.825Z,94747.61
2019-01-14T09:58:42.307Z,94749.62
2019-01-14T09:59:45.737Z,94753.00
2019-01-14T10:00:49.264Z,94750.97
2019-01-14T10:01:52.822Z,94753.20
2019-01-14T10:02:56.311Z,94750.62
2019-01-14T10:03:59.744Z,94750.23
2019-01-14T10:05:05.667Z,94751.20
2019-01-14T10:06:08.759Z,94743.88
2019-01-14T10:07:12.187Z,94749.14
2019-01-14T10:08:15.633Z,94740.95
2019-01-14T10:09:19.088Z,94740.95
2019-01-14T10:10:22.523Z,94746.38
2019-01-14T10:11:26.021Z,94746.16
2019-01-14T10:12:29.453Z,94735.21
2019-01-14T10:13:32.949Z,94742.53
2019-01-14T10:14:36.376Z,94737.27
2019-01-14T10:15:39.900Z,94744.56
2019-01-14T10:16:44.219Z,94742.32
2019-01-14T10:17:49.422Z,94735.58
2019-01-14T10:18:52.848Z,94748.77
2019-01-14T10:19:56.387Z,94734.58
2019-01-14T10:20:59.869Z,94739.24
2019-01-14T10:22:03.360Z,94738.28
2019-01-14T10:23:06.928Z,94732.89
2019-01-14T10:24:10.340Z,94741.80
2019-01-14T10:25:13.909Z,94733.05
2019-01-14T10:26:17.355Z,94735.11
2019-01-14T10:27:20.785Z,94733.81
2019-01-14T10:28:24.197Z,94735.43
2019-01-14T10:29:27.629Z,94733.97
2019-01-14T10:30:31.194Z,94728.76
2019-01-14T10:31:34.652Z,94728.92
2019-01-14T10:32:38.081Z,94730.83
2019-01-14T10:33:41.513Z,94733.51
2019-01-14T10:34:44.962Z,94735.79
2019-01-14T10:35:48.604Z,94738.55
2019-01-14T10:36:52.049Z,94733.34
2019-01-14T10:37:55.713Z,94728.30
2019-01-14T10:38:59.144Z,94730.73
2019-01-14T10:40:02.724Z,94734.97
2019-01-14T10:41:06.241Z,94729.76
2019-01-14T10:42:09.651Z,94729.23
2019-01-14T10:43:13.221Z,94731.66
2019-01-14T10:44:16.720Z,94730.92
2019-01-14T10:45:22.085Z,94733.56
2019-01-14T10:46:25.602Z,94727.01
2019-01-14T10:47:29.110Z,94733.67
2019-01-14T10:48:32.546Z,94724.94
2019-01-14T10:49:36.001Z,94731.00
2019-01-14T10:50:39.441Z,94725.78
2019-01-14T10:51:42.971Z,94724.48
2019-01-14T10:52:46.543Z,94731.52
2019-01-14T10:53:50.041Z,94739.34
2019-01-14T10:54:53.480Z,94727.23
2019-01-14T10:55:56.906Z,94721.31
2019-01-14T10:57:00.357Z,94725.92
2019-01-14T10:58:04.124Z,94715.50
2019-01-14T10:59:07.732Z,94733.90
2019-01-14T11:00:20.243Z,94730.66
2019-01-14T11:01:23.757Z,94733.81
2019-01-14T11:02:27.339Z,94720.58
2019-01-14T11:03:30.862Z,94720.40
2019-01-14T11:04:34.375Z,94721.31
2019-01-14T11:05:37.947Z,94732.48
2019-01-14T11:06:41.453Z,94728.39
2019-01-14T11:07:44.940Z,94720.01
2019-01-14T11:08:48.448Z,94725.74
2019-01-14T11:09:51.982Z,94737.64
2019-01-14T11:10:55.375Z,94728.76
2019-01-14T11:11:58.886Z,94721.70
2019-01-14T11:13:02.387Z,94716.90
2019-01-14T11:14:06.019Z,94718.95
2019-01-14T11:15:14.994Z,94728.47
2019-01-14T11:16:18.494Z,94722.16
2019-01-14T11:17:22.106Z,94723.48
2019-01-14T11:18:25.629Z,94718.25
2019-01-14T11:19:29.166Z,94725.86
2019-01-14T11:20:32.747Z,94714.91
2019-01-14T11:21:36.263Z,94719.73
2019-01-14T11:22:39.929Z,94727.37
2019-01-14T11:23:43.476Z,94716.41
2019-01-14T11:24:50.152Z,94724.94
2019-01-14T11:25:53.790Z,94717.34
2019-01-14T11:26:57.277Z,94720.47
2019-01-14T11:28:01.430Z,94724.70
2019-01-14T11:29:05.046Z,94712.97
2019-01-14T11:30:20.186Z,94721.11
2019-01-14T11:31:23.615Z,94714.36
2019-01-14T11:32:27.116Z,94712.37
2019-01-14T11:33:30.594Z,94715.34
2019-01-14T11:34:34.022Z,94716.79
2019-01-14T11:35:38.384Z,94715.09
2019-01-14T11:36:41.806Z,94715.72
2019-01-14T11:37:45.229Z,94721.31
2019-01-14T11:38:49.226Z,94717.77
2019-01-14T11:39:52.676Z,94710.37
2019-01-14T11:40:56.484Z,94716.90
2019-01-14T11:41:59.922Z,94705.41
2019-01-14T11:43:03.359Z,94717.86
2019-01-14T11:44:06.885Z,94710.67
2019-01-14T11:45:12.863Z,94709.31
2019-01-14T11:46:16.283Z,94702.80
2019-01-14T11:47:19.773Z,94709.52
2019-01-14T11:48:23.299Z,94706.55
2019-01-14T11:49:26.733Z,94706.19
2019-01-14T11:50:30.245Z,94713.84
2019-01-14T11:51:33.738Z,94702.94
2019-01-14T11:52:37.174Z,94711.14
2019-01-14T11:53:40.681Z,94703.91
2019-01-14T11:54:44.110Z,94701.10
2019-01-14T11:55:47.539Z,94699.96
2019-01-14T11:56:51.045Z,94696.09
2019-01-14T11:57:54.498Z,94701.48
2019-01-14T11:58:57.945Z,94698.11
2019-01-14T12:00:01.445Z,94695.69
2019-01-14T12:01:05.309Z,94690.62
2019-01-14T12:02:08.881Z,94694.75
2019-01-14T12:03:12.373Z,94684.48
2019-01-14T12:04:15.824Z,94676.37
2019-01-14T12:05:19.408Z,94686.41
2019-01-14T12:06:22.919Z,94690.45
2019-01-14T12:07:26.420Z,94697.34
2019-01-14T12:08:29.918Z,94696.60
2019-01-14T12:09:33.497Z,94697.36
2019-01-14T12:10:37.074Z,94689.01
2019-01-14T12:11:40.507Z,94706.80
2019-01-14T12:12:43.931Z,94690.47
2019-01-14T12:13:47.352Z,94680.80
2019-01-14T12:14:50.883Z,94693.67
2019-01-14T12:15:54.350Z,94691.27
2019-01-14T12:16:57.810Z,94695.50
2019-01-14T12:18:01.233Z,94689.37
2019-01-14T12:19:04.817Z,94685.08
2019-01-14T12:20:15.276Z,94688.78
2019-01-14T12:21:18.711Z,94693.06
2019-01-14T12:22:22.137Z,94686.61
2019-01-14T12:23:25.547Z,94692.52
2019-01-14T12:24:29.040Z,94693.27
2019-01-14T12:25:32.559Z,94693.22
2019-01-14T12:26:36.062Z,94694.52
2019-01-14T12:27:39.497Z,94693.45